Elton, WI

12:04 AM CDT on July 29, 2015 (GMT -0500)
Sawyer Lake | | Change Station
CLOSE
Current Station
Personal Weather Station
Location: White Lake, WI
Elevation: 1424 ft
Nearby Weather Stations

Elev 1424 ft 45.25 °N, 88.76 °W | Updated 21 seconds ago

Partly Cloudy
Partly Cloudy
73.6 °F
Feels Like 72 °F
N
0.0
Wind Variable Wind from SW
Gusts 0.0 mph

Today
High -- | Low -- °F
--% Chance of Precip.
Yesterday
High -- | Low -- °F
Precip. -- in
5:36 AM 8:26 PM
Waxing Gibbous, 93% visible
Pressure 29.93 in
Visibility 10.0 miles
Clouds Scattered Clouds 2600 ft
Mostly Cloudy 3700 ft
Overcast 6500 ft
Heat Index 72 °F
Dew Point 69 °F
Humidity 87%
Rainfall 0.00 in
Snow Depth Not available.
UV 0.0 out of 12
Pollen 6.30 out of 12
Air Quality Not available.
Flu Activity Not available.
METAR KAIG 290450Z AUTO 19004KT 10SM SCT026 BKN037 OVC065 22/21 A2993 RMK AO2 T02180208

More Conditions Fewer Conditions

Pressure 29.93 in
Visibility 10.0 miles
Clouds Scattered Clouds 2600 ft
Mostly Cloudy 3700 ft
Overcast 6500 ft
Heat Index 72 °F
Dew Point 69 °F
Humidity 87%
Rainfall 0.00 in
Snow Depth Not available.
UV 0.0 out of 12
Pollen 6.30 out of 12
Air Quality Not available.
Flu Activity Not available.
METAR KAIG 290450Z AUTO 19004KT 10SM SCT026 BKN037 OVC065 22/21 A2993 RMK AO2 T02180208

More Conditions Fewer Conditions

10-Day Weather Forecast

×

Almanac

Astronomy

Jul. 29, 2015 Rise Set
Actual Time
Civil Twilight
Nautical Twilight
Astronomical Twilight
Moon
Length of Visible Light
Length of Day
Tomorrow will be .
, % of the Moon is Illuminated

Today's Extremes

State Highs State Lows

Community

WunderPhotos

Upload Photos

1,842,056 photos uploaded!

WunderBlogs® & News

Nearby

Air Quality

  Air Quality AQ Index Pollutant
Not available.

Snow Depth

Station Depth Elevation

Earthquake Activity

City Distance Mag. Time & Date
Minimum magnitude displayed is 2.5.

Coastal Water Temperatures

Place Temperature

Stations

Nearby Weather Stations

Station Location Temp. Windchill Dew Point Humidity Wind Precip. Elev Updated Type